To NAV CANADA Home Page Login to a new session Search on AWWS site Disclaimer Vers la page française équivalente Tips FAQ What's new on the site To the Forecasts and Observations / NOTAM section To "File a Flight Plan" website Publications and other links Update of the User's profile FIC Telephone Numbers My Weather Data Folder Route Weather Data Regional Weather Data Local Weather Data To the Forecasts and Observations / NOTAM section
Request Generated 04/23/2018 at 17:25:59 UTC . Weather information available at that time is displayed.

METAR/TAF

WINDSOR/ON    

METAR CYQG 231700Z 11008KT 080V180 15SM BKN210 BKN220 18/06 A3022 RMK
CI5CC1 CONTRAILS SLP235 DENSITY ALT 800FT=
METAR CYQG 231600Z 12009KT 060V150 15SM BKN210 17/05 A3023 RMK CI6
CONTRAILS SLP241 DENSITY ALT 700FT=
METAR CYQG 231500Z 10009KT 070V140 15SM BKN210 16/05 A3024 RMK CI6
CONTRAILS SLP244=

TAF CYQG 231141Z 2312/2412 05005KT P6SM SCT280
FM232000 14008KT P6SM SCT260
FM240200 14007KT P6SM OVC060
FM240500 VRB03KT P6SM -SHRA OVC050
RMK NXT FCST BY 231800Z=

LONDON/ON    

METAR CYXU 231700Z 10011G19KT 15SM FEW250 18/03 A3026 RMK CI2 SLP254
DENSITY ALT 1100FT=
METAR CYXU 231600Z 13013G19KT 15SM FEW250 17/02 A3029 RMK CI2 SLP262
DENSITY ALT 1000FT=
METAR CYXU 231500Z 12012KT 15SM SCT250 15/M00 A3031 RMK CI3 SLP269=

TAF CYXU 231141Z 2312/2412 08008KT P6SM SKC
FM231500 13010G20KT P6SM FEW040
BECMG 2318/2320 17012KT
BECMG 2322/2324 10012KT
FM240600 16010KT P6SM SCT060 BKN120
FM241100 16010KT P6SM OVC050
RMK NXT FCST BY 231800Z=

SARNIA (CHRIS HADFIELD)/ON    (show WxCam)

METAR CYZR 231700Z AUTO 13011G16KT 090V160 9SM CLR 19/03 A3024 RMK
SLP243 DENSITY ALT 800FT=
METAR CYZR 231600Z AUTO 15009G15KT 100V160 9SM CLR 18/03 A3025 RMK
SLP249 DENSITY ALT 700FT=
METAR CYZR 231500Z AUTO 13013KT 9SM CLR 17/02 A3027 RMK SLP256=

TAF CYZR 231340Z 2314/2402 12010KT P6SM SKC
BECMG 2316/2318 15012KT
RMK FCST BASED ON AUTO OBS. NXT FCST BY 232000Z=

KITCHENER/WATERLOO/ON    (show WxCam)

METAR CYKF 231700Z AUTO 13012G18KT 9SM CLR 18/M05 A3030 RMK SLP267
DENSITY ALT 1100FT=
METAR CYKF 231600Z AUTO 14010G15KT 070V150 9SM CLR 17/M03 A3033 RMK
SLP275=
METAR CYKF 231500Z AUTO 12006KT 080V140 9SM CLR 15/M03 A3035 RMK
SLP283=

TAF CYKF 231339Z 2314/2402 10006KT P6SM SKC
BECMG 2314/2316 12012KT
BECMG 2400/2402 VRB03KT
RMK FCST BASED ON AUTO OBS. NXT FCST BY 232000Z=

HAMILTON/ON    

METAR CYHM 231700Z 05012G18KT 15SM FEW250 13/00 A3031 RMK CI1 CI TR
SLP271=
METAR CYHM 231600Z 04009KT 15SM FEW240 13/02 A3035 RMK CI1 SLP282=
METAR CYHM 231500Z 05010KT 15SM FEW250 11/M00 A3036 RMK CI1 SLP287=

TAF CYHM 231141Z 2312/2412 05008KT P6SM SKC
FM231800 06010KT P6SM FEW050
BECMG 2402/2404 VRB03KT
FM240800 16008KT P6SM BKN160
FM241100 18008KT P6SM OVC060
RMK NXT FCST BY 231800Z=

TORONTO/LESTER B. PEARSON INTL/ON    

METAR CYYZ 231700Z 14008KT 110V170 15SM FEW250 15/M04 A3034 RMK CI1
CONTRAILS SLP278=
METAR CYYZ 231600Z 15008KT 15SM FEW250 15/M05 A3036 RMK CI1 SLP285=
METAR CYYZ 231500Z 11008KT 090V170 15SM FEW250 14/M06 A3038 RMK CI1
SLP292=

TAF CYYZ 231439Z 2315/2418 13008KT P6SM FEW250
FM231900 15012KT P6SM FEW040
BECMG 2322/2324 06006KT
FM240400 VRB03KT P6SM FEW050 BKN280
FM241000 18007KT P6SM SCT040 BKN160
FM241400 20012KT P6SM OVC050
FM241700 18012KT P6SM OVC120
RMK NXT FCST BY 231800Z=
Your time UTC time
Weather data provided by Environment Canada and NAV CANADA